Time;durP1;ratioP1;P1;durP2;ratioP2;P2;SDS_P1;SDS_P2;PMS_P1;PMS_P2;Temp;Humidity;BMP_temperature;BMP_pressure;BME280_temperature;BME280_humidity;BME280_pressure;Samples;Min_cycle;Max_cycle;Signal;HPM_P1;HPM_P2
2021/12/22 00:00:16;;;;;;;56.92;21.08;;;;;;;;;;5042276;28;20044;-77
2021/12/22 00:02:48;;;;;;;52.10;20.23;;;;;;;;;;5045258;28;20033;-74
2021/12/22 00:05:25;;;;;;;49.83;18.80;;;;;;;;;;5028451;28;20055;-74
2021/12/22 00:07:51;;;;;;;45.85;18.85;;;;;;;;;;5045893;28;20456;-75
2021/12/22 00:10:18;;;;;;;48.45;18.95;;;;;;;;;;5010316;28;20036;-74
2021/12/22 00:12:44;;;;;;;38.75;16.45;;;;;;;;;;5045856;28;20433;-74
2021/12/22 00:15:10;;;;;;;41.15;16.80;;;;;;;;;;5041748;28;20024;-77
2021/12/22 00:17:35;;;;;;;35.50;15.20;;;;;;;;;;5005115;28;20486;-77
2021/12/22 00:20:01;;;;;;;45.95;17.00;;;;;;;;;;5041960;28;20021;-75
2021/12/22 00:22:26;;;;;;;38.75;15.77;;;;;;;;;;5055001;28;20017;-77
2021/12/22 00:24:52;;;;;;;45.85;18.10;;;;;;;;;;5054973;28;20025;-77
2021/12/22 00:27:18;;;;;;;42.80;17.83;;;;;;;;;;5054817;28;20021;-77
2021/12/22 00:29:47;;;;;;;44.72;16.38;;;;;;;;;;5037064;28;20031;-77
2021/12/22 00:32:15;;;;;;;35.45;13.88;;;;;;;;;;5037350;28;20506;-77
2021/12/22 00:34:50;;;;;;;28.88;12.90;;;;;;;;;;5053711;28;20036;-77
2021/12/22 00:37:26;;;;;;;32.92;14.68;;;;;;;;;;5038157;28;20028;-77
2021/12/22 00:39:52;;;;;;;30.45;11.82;;;;;;;;;;5041571;28;20028;-77
2021/12/22 00:42:18;;;;;;;27.40;11.80;;;;;;;;;;5025101;28;20032;-76
2021/12/22 00:44:46;;;;;;;30.33;12.57;;;;;;;;;;5020597;28;20025;-76
2021/12/22 00:47:12;;;;;;;22.20;10.45;;;;;;;;;;5020459;28;20031;-77
2021/12/22 00:49:37;;;;;;;19.02;9.57;;;;;;;;;;5036767;28;20025;-78
2021/12/22 00:52:03;;;;;;;30.92;11.70;;;;;;;;;;5020284;28;20437;-77
2021/12/22 00:54:28;;;;;;;27.30;10.80;;;;;;;;;;5036946;28;20025;-77
2021/12/22 00:57:00;;;;;;;22.30;11.20;;;;;;;;;;5020045;28;20035;-77
2021/12/22 00:59:26;;;;;;;30.65;10.88;;;;;;;;;;5020804;28;20041;-77
2021/12/22 01:01:52;;;;;;;26.98;10.55;;;;;;;;;;5025528;28;20066;-77
2021/12/22 01:04:18;;;;;;;24.83;11.18;;;;;;;;;;5054257;28;20116;-77
2021/12/22 01:06:44;;;;;;;25.85;11.82;;;;;;;;;;5036519;28;20035;-77
2021/12/22 01:09:09;;;;;;;22.83;10.82;;;;;;;;;;5036406;28;20481;-77
2021/12/22 01:11:35;;;;;;;23.60;9.73;;;;;;;;;;5019856;28;20123;-75
2021/12/22 01:14:02;;;;;;;26.13;11.65;;;;;;;;;;5054139;28;20036;-77
2021/12/22 01:16:27;;;;;;;26.27;11.50;;;;;;;;;;5019636;28;20059;-76
2021/12/22 01:18:53;;;;;;;23.85;11.07;;;;;;;;;;5053711;28;20045;-77
2021/12/22 01:21:36;;;;;;;23.85;11.13;;;;;;;;;;5061585;28;20460;-77
2021/12/22 01:26:50;;;;;;;24.48;10.02;;;;;;;;;;5054062;28;20364;-77
2021/12/22 01:29:16;;;;;;;;;;;;;;;;;;5020522;28;20045;-76
2021/12/22 01:31:42;;;;;;;19.95;9.45;;;;;;;;;;5054209;28;19913;-76
2021/12/22 01:34:08;;;;;;;25.02;10.07;;;;;;;;;;5053862;28;20025;-77
2021/12/22 01:36:33;;;;;;;21.65;10.32;;;;;;;;;;5054152;28;20078;-76
2021/12/22 01:38:59;;;;;;;25.23;10.50;;;;;;;;;;5053842;28;20052;-77
2021/12/22 01:41:24;;;;;;;22.30;9.73;;;;;;;;;;5056842;28;20048;-74
2021/12/22 01:43:50;;;;;;;24.45;9.75;;;;;;;;;;5035896;28;20052;-77
2021/12/22 01:49:11;;;;;;;23.90;10.70;;;;;;;;;;5038307;28;20040;-74
2021/12/22 01:51:55;;;;;;;24.48;10.55;;;;;;;;;;5036408;28;20415;-77
2021/12/22 01:54:21;;;;;;;24.52;10.23;;;;;;;;;;5035946;28;20417;-76
2021/12/22 01:56:47;;;;;;;30.30;11.50;;;;;;;;;;5035823;28;20067;-77
2021/12/22 01:59:13;;;;;;;27.05;11.50;;;;;;;;;;5035542;28;20146;-77
2021/12/22 02:01:39;;;;;;;31.27;11.80;;;;;;;;;;5019570;28;20044;-77
2021/12/22 02:04:10;;;;;;;27.83;12.55;;;;;;;;;;5055302;28;20098;-76
2021/12/22 02:06:36;;;;;;;33.00;12.55;;;;;;;;;;5021158;28;20044;-75
2021/12/22 02:09:02;;;;;;;23.63;11.27;;;;;;;;;;5053789;28;20036;-78
2021/12/22 02:11:28;;;;;;;35.15;11.38;;;;;;;;;;5019981;28;20029;-76
2021/12/22 02:14:02;;;;;;;31.30;12.20;;;;;;;;;;5053537;28;20037;-76
2021/12/22 02:16:32;;;;;;;34.33;12.73;;;;;;;;;;5053480;28;20033;-77
2021/12/22 02:18:57;;;;;;;27.70;12.57;;;;;;;;;;5053270;28;20380;-76
2021/12/22 02:21:25;;;;;;;29.63;11.68;;;;;;;;;;5035677;28;20082;-76
2021/12/22 02:23:52;;;;;;;26.08;11.45;;;;;;;;;;5054091;28;20116;-76
2021/12/22 02:26:28;;;;;;;26.83;11.52;;;;;;;;;;5058416;28;20036;-77
2021/12/22 02:28:59;;;;;;;28.45;12.27;;;;;;;;;;5052149;28;20032;-77
2021/12/22 02:31:25;;;;;;;27.13;12.35;;;;;;;;;;5020086;28;20025;-77
2021/12/22 02:33:51;;;;;;;32.70;13.55;;;;;;;;;;5037859;28;20062;-77
2021/12/22 02:36:27;;;;;;;32.83;12.35;;;;;;;;;;5057014;28;20104;-77
2021/12/22 02:38:58;;;;;;;31.75;13.98;;;;;;;;;;5024168;28;20037;-77
2021/12/22 02:41:27;;;;;;;41.88;16.13;;;;;;;;;;5056923;28;20036;-76
2021/12/22 02:43:54;;;;;;;48.83;18.98;;;;;;;;;;5039200;28;20106;-75
2021/12/22 02:46:24;;;;;;;83.07;27.63;;;;;;;;;;5042724;28;20028;-76
2021/12/22 02:48:50;;;;;;;94.85;32.78;;;;;;;;;;5039429;28;20040;-77
2021/12/22 02:51:16;;;;;;;105.65;33.80;;;;;;;;;;5022238;28;20029;-77
2021/12/22 02:54:04;;;;;;;98.00;33.75;;;;;;;;;;5022780;28;20037;-76
2021/12/22 02:56:52;;;;;;;83.47;27.83;;;;;;;;;;5056292;28;20542;-76
2021/12/22 03:04:45;;;;;;;51.85;19.88;;;;;;;;;;5041503;28;20024;-77
2021/12/22 03:07:15;;;;;;;52.00;21.67;;;;;;;;;;5056766;28;20119;-74
2021/12/22 03:09:40;;;;;;;50.00;21.35;;;;;;;;;;5022704;28;20037;-74
2021/12/22 03:12:07;;;;;;;50.33;21.73;;;;;;;;;;5038309;28;20040;-74
2021/12/22 03:14:32;;;;;;;47.72;20.88;;;;;;;;;;5038535;28;20029;-74
2021/12/22 03:16:58;;;;;;;56.88;23.17;;;;;;;;;;5005848;28;20025;-75
2021/12/22 03:19:28;;;;;;;42.58;18.92;;;;;;;;;;5021841;28;20143;-74
2021/12/22 03:21:59;;;;;;;48.60;19.57;;;;;;;;;;5056272;28;20104;-76
2021/12/22 03:24:26;;;;;;;45.03;19.60;;;;;;;;;;5023470;28;20119;-76
2021/12/22 03:26:51;;;;;;;54.10;23.45;;;;;;;;;;5046061;28;20025;-76
2021/12/22 03:29:18;;;;;;;51.00;22.50;;;;;;;;;;5038278;28;20450;-76
2021/12/22 03:31:44;;;;;;;57.25;23.60;;;;;;;;;;5038173;28;20467;-75
2021/12/22 03:34:11;;;;;;;47.63;22.05;;;;;;;;;;5021805;28;20052;-76
2021/12/22 03:36:36;;;;;;;47.70;23.10;;;;;;;;;;5038151;28;20021;-76
2021/12/22 03:39:02;;;;;;;51.45;22.30;;;;;;;;;;5055778;28;20078;-76
2021/12/22 03:41:28;;;;;;;48.78;21.13;;;;;;;;;;5055892;28;20026;-76
2021/12/22 03:43:53;;;;;;;47.67;21.67;;;;;;;;;;5037948;28;20149;-76
2021/12/22 03:46:19;;;;;;;41.22;18.08;;;;;;;;;;5057142;28;20025;-76
2021/12/22 03:48:44;;;;;;;50.53;21.45;;;;;;;;;;5038189;28;20028;-76
2021/12/22 03:51:10;;;;;;;47.35;21.60;;;;;;;;;;5004928;28;20028;-76
2021/12/22 03:53:35;;;;;;;42.03;19.48;;;;;;;;;;5021260;28;20029;-76
2021/12/22 03:56:01;;;;;;;43.83;19.40;;;;;;;;;;5020796;28;20454;-76
2021/12/22 03:58:26;;;;;;;45.45;20.45;;;;;;;;;;5021673;28;20174;-76
2021/12/22 04:00:54;;;;;;;46.95;20.45;;;;;;;;;;5055511;28;20432;-76
2021/12/22 04:03:23;;;;;;;48.35;20.27;;;;;;;;;;5021822;28;20033;-76
2021/12/22 04:05:48;;;;;;;45.50;19.02;;;;;;;;;;5047587;28;20029;-76
2021/12/22 04:08:17;;;;;;;41.47;19.40;;;;;;;;;;5037540;28;20444;-76
2021/12/22 04:10:42;;;;;;;50.60;21.55;;;;;;;;;;5021254;28;20029;-75
2021/12/22 04:13:09;;;;;;;60.13;24.23;;;;;;;;;;5037358;28;20036;-76
2021/12/22 04:15:35;;;;;;;66.40;25.70;;;;;;;;;;5037383;28;20032;-76
2021/12/22 04:18:00;;;;;;;69.90;28.75;;;;;;;;;;5037090;28;20372;-76
2021/12/22 04:20:28;;;;;;;65.28;27.38;;;;;;;;;;5020837;28;20124;-76
2021/12/22 04:22:53;;;;;;;70.95;28.90;;;;;;;;;;5054970;28;20028;-76
2021/12/22 04:25:22;;;;;;;65.53;26.52;;;;;;;;;;5026054;28;20040;-76
2021/12/22 04:27:48;;;;;;;68.38;26.27;;;;;;;;;;5055433;28;20029;-76
2021/12/22 04:30:14;;;;;;;59.53;25.63;;;;;;;;;;5020726;28;20044;-76
2021/12/22 04:32:39;;;;;;;65.97;28.23;;;;;;;;;;5020619;28;20052;-75
2021/12/22 04:35:05;;;;;;;66.40;26.77;;;;;;;;;;5020582;28;20472;-76
2021/12/22 04:37:30;;;;;;;60.22;25.92;;;;;;;;;;5037187;28;20033;-76
2021/12/22 04:39:56;;;;;;;60.05;24.38;;;;;;;;;;5036666;28;20094;-75
2021/12/22 04:42:21;;;;;;;64.72;25.70;;;;;;;;;;5036853;28;20440;-76
2021/12/22 04:44:50;;;;;;;61.72;25.63;;;;;;;;;;5060929;28;20031;-76
2021/12/22 04:47:15;;;;;;;56.30;23.88;;;;;;;;;;5053811;28;20083;-76
2021/12/22 04:49:41;;;;;;;74.03;30.38;;;;;;;;;;5004105;28;20033;-76
2021/12/22 04:52:09;;;;;;;102.75;41.88;;;;;;;;;;5054454;28;20448;-76
2021/12/22 04:54:46;;;;;;;116.97;46.83;;;;;;;;;;5054112;28;20083;-76
2021/12/22 04:57:11;;;;;;;111.28;44.78;;;;;;;;;;5054031;28;20025;-75
2021/12/22 04:59:37;;;;;;;105.43;43.30;;;;;;;;;;5020033;28;20032;-77
2021/12/22 05:02:03;;;;;;;125.18;46.60;;;;;;;;;;5054312;28;20466;-76
2021/12/22 05:04:28;;;;;;;105.13;41.17;;;;;;;;;;5041297;28;20048;-76
2021/12/22 05:06:53;;;;;;;103.97;41.38;;;;;;;;;;5058657;28;20034;-76
2021/12/22 05:09:19;;;;;;;115.05;45.45;;;;;;;;;;5019947;28;20013;-75
2021/12/22 05:11:44;;;;;;;120.97;46.47;;;;;;;;;;5019908;28;20033;-75
2021/12/22 05:14:10;;;;;;;118.90;45.92;;;;;;;;;;5054716;28;20029;-76
2021/12/22 05:16:44;;;;;;;108.78;43.83;;;;;;;;;;5054080;28;20297;-76
2021/12/22 05:19:14;;;;;;;111.20;42.97;;;;;;;;;;5037495;28;20059;-76
2021/12/22 05:21:39;;;;;;;99.82;40.03;;;;;;;;;;5020261;28;20029;-75
2021/12/22 05:24:05;;;;;;;101.03;43.17;;;;;;;;;;5019816;28;20421;-75
2021/12/22 05:26:30;;;;;;;100.13;41.65;;;;;;;;;;5055554;28;20031;-76
2021/12/22 05:28:56;;;;;;;104.68;41.83;;;;;;;;;;5036477;28;20467;-76
2021/12/22 05:31:22;;;;;;;113.40;40.58;;;;;;;;;;5019653;28;20132;-77
2021/12/22 05:33:48;;;;;;;96.57;39.35;;;;;;;;;;5003164;28;20044;-75
2021/12/22 05:36:13;;;;;;;92.70;35.30;;;;;;;;;;5053653;28;20029;-75
2021/12/22 05:38:39;;;;;;;91.05;37.55;;;;;;;;;;5053707;28;20025;-74
2021/12/22 05:41:04;;;;;;;97.03;41.72;;;;;;;;;;5036154;28;20033;-75
2021/12/22 05:43:30;;;;;;;101.07;41.10;;;;;;;;;;5056690;28;20032;-76
2021/12/22 05:45:55;;;;;;;95.72;36.60;;;;;;;;;;5026663;28;20044;-74
2021/12/22 05:48:22;;;;;;;98.53;39.22;;;;;;;;;;5033789;28;20025;-74
2021/12/22 05:50:51;;;;;;;68.25;29.02;;;;;;;;;;5027536;28;20064;-74
2021/12/22 05:53:17;;;;;;;65.88;26.38;;;;;;;;;;5028894;28;20033;-77
2021/12/22 05:55:42;;;;;;;75.95;30.60;;;;;;;;;;5032561;28;20068;-75
2021/12/22 05:58:08;;;;;;;81.70;30.15;;;;;;;;;;5043127;28;20032;-79
2021/12/22 06:00:34;;;;;;;80.72;33.75;;;;;;;;;;5013672;28;20032;-76
2021/12/22 06:03:00;;;;;;;96.78;33.60;;;;;;;;;;5032866;28;20029;-75
2021/12/22 06:05:26;;;;;;;87.57;32.03;;;;;;;;;;5050370;28;20411;-75
2021/12/22 06:07:51;;;;;;;79.15;30.55;;;;;;;;;;5031859;28;20032;-74
2021/12/22 06:10:17;;;;;;;112.97;40.78;;;;;;;;;;5050772;28;20045;-76
2021/12/22 06:12:42;;;;;;;87.43;34.15;;;;;;;;;;5034556;28;20517;-76
2021/12/22 06:15:08;;;;;;;87.97;32.80;;;;;;;;;;5035121;28;20104;-75
2021/12/22 06:17:34;;;;;;;97.47;41.97;;;;;;;;;;5049831;28;20404;-74
2021/12/22 06:19:59;;;;;;;96.80;37.20;;;;;;;;;;5031290;28;20057;-75
2021/12/22 06:22:26;;;;;;;114.88;46.15;;;;;;;;;;5032509;28;20542;-78
2021/12/22 06:24:52;;;;;;;119.05;44.50;;;;;;;;;;4999547;28;20067;-72
2021/12/22 06:27:18;;;;;;;236.68;107.07;;;;;;;;;;5014138;28;20033;-75
2021/12/22 06:29:43;;;;;;;232.82;97.78;;;;;;;;;;5052277;28;20420;-76
2021/12/22 06:32:09;;;;;;;135.25;53.50;;;;;;;;;;5052319;28;20028;-74
2021/12/22 06:34:34;;;;;;;104.30;41.33;;;;;;;;;;5057044;28;20109;-78
2021/12/22 06:37:00;;;;;;;112.85;40.60;;;;;;;;;;5037734;28;20275;-76
2021/12/22 06:39:26;;;;;;;103.65;39.30;;;;;;;;;;5053273;28;20459;-77
2021/12/22 06:41:51;;;;;;;107.57;41.35;;;;;;;;;;5060263;28;20111;-78
2021/12/22 06:44:18;;;;;;;105.88;41.90;;;;;;;;;;5051233;28;20098;-76
2021/12/22 06:46:57;;;;;;;104.95;42.67;;;;;;;;;;5055582;28;20139;-76
2021/12/22 06:49:23;;;;;;;119.25;42.75;;;;;;;;;;5038632;28;20441;-78
2021/12/22 06:51:55;;;;;;;125.90;48.03;;;;;;;;;;5038068;28;20031;-75
2021/12/22 06:54:21;;;;;;;171.85;66.70;;;;;;;;;;5041587;28;20071;-76
2021/12/22 06:56:46;;;;;;;159.50;61.47;;;;;;;;;;5048335;28;20106;-76
2021/12/22 06:59:14;;;;;;;141.70;55.65;;;;;;;;;;5053458;28;20048;-75
2021/12/22 07:01:46;;;;;;;141.93;52.70;;;;;;;;;;5057718;28;20029;-75
2021/12/22 07:04:17;;;;;;;180.23;63.97;;;;;;;;;;5041344;28;20033;-75
2021/12/22 07:06:43;;;;;;;177.38;61.28;;;;;;;;;;5056975;28;20048;-75
2021/12/22 07:09:09;;;;;;;170.18;63.92;;;;;;;;;;5056826;28;20041;-75
2021/12/22 07:11:40;;;;;;;169.77;60.97;;;;;;;;;;5058766;28;20033;-77
2021/12/22 07:14:07;;;;;;;165.73;60.35;;;;;;;;;;5053807;28;20385;-75
2021/12/22 07:16:32;;;;;;;170.20;62.28;;;;;;;;;;5071825;28;20033;-76
2021/12/22 07:18:58;;;;;;;150.85;55.80;;;;;;;;;;5055519;28;20056;-76
2021/12/22 07:21:23;;;;;;;134.15;49.30;;;;;;;;;;5060117;28;20033;-74
2021/12/22 07:23:49;;;;;;;121.40;45.10;;;;;;;;;;5059364;28;20120;-74
2021/12/22 07:26:14;;;;;;;125.30;47.38;;;;;;;;;;5055946;28;20033;-76
2021/12/22 07:28:45;;;;;;;122.20;45.17;;;;;;;;;;5070690;28;20036;-76
2021/12/22 07:31:11;;;;;;;135.10;50.15;;;;;;;;;;5053041;28;20441;-77
2021/12/22 07:33:36;;;;;;;114.28;43.90;;;;;;;;;;5069656;28;20033;-74
2021/12/22 07:36:04;;;;;;;131.20;44.97;;;;;;;;;;5054275;28;20425;-72
2021/12/22 07:38:43;;;;;;;120.70;44.17;;;;;;;;;;5052411;28;20033;-72
2021/12/22 07:41:11;;;;;;;115.68;46.00;;;;;;;;;;5034452;28;20036;-74
2021/12/22 07:43:39;;;;;;;121.95;45.00;;;;;;;;;;5020026;28;20128;-76
2021/12/22 07:46:05;;;;;;;124.50;47.67;;;;;;;;;;5055432;28;20029;-76
2021/12/22 07:48:30;;;;;;;127.43;45.30;;;;;;;;;;5054950;28;20032;-75
2021/12/22 07:50:56;;;;;;;152.27;51.10;;;;;;;;;;5053150;28;20036;-73
2021/12/22 07:53:22;;;;;;;189.27;60.10;;;;;;;;;;5049657;28;20033;-76
2021/12/22 07:55:47;;;;;;;217.23;71.57;;;;;;;;;;5046165;28;20044;-75
2021/12/22 07:58:13;;;;;;;243.18;70.30;;;;;;;;;;5044359;28;20055;-76
2021/12/22 08:00:38;;;;;;;230.27;62.72;;;;;;;;;;5050713;28;20033;-73
2021/12/22 08:03:04;;;;;;;197.32;56.17;;;;;;;;;;5053990;28;20067;-74
2021/12/22 08:05:30;;;;;;;154.77;47.97;;;;;;;;;;5020849;28;20033;-75
2021/12/22 08:07:56;;;;;;;153.55;49.28;;;;;;;;;;5037999;28;20039;-76
2021/12/22 08:10:22;;;;;;;127.15;43.88;;;;;;;;;;5033718;28;20128;-74
2021/12/22 08:12:49;;;;;;;109.32;36.78;;;;;;;;;;5052674;28;20025;-75
2021/12/22 08:15:15;;;;;;;83.82;31.65;;;;;;;;;;5034419;28;20033;-75
2021/12/22 08:17:41;;;;;;;85.13;30.00;;;;;;;;;;5052678;28;20036;-76
2021/12/22 08:20:07;;;;;;;112.38;34.33;;;;;;;;;;5034029;28;20045;-77
2021/12/22 08:22:33;;;;;;;74.65;27.92;;;;;;;;;;5052041;28;20032;-76
2021/12/22 08:24:58;;;;;;;77.35;27.05;;;;;;;;;;5052575;28;20337;-75
2021/12/22 08:27:24;;;;;;;129.32;39.88;;;;;;;;;;5018364;28;20364;-77
2021/12/22 08:29:50;;;;;;;168.70;48.15;;;;;;;;;;5052432;28;20167;-76
2021/12/22 08:32:15;;;;;;;122.32;39.10;;;;;;;;;;5052952;28;20403;-77
2021/12/22 08:34:42;;;;;;;139.63;44.35;;;;;;;;;;5017611;28;20035;-77
2021/12/22 08:39:56;;;;;;;113.80;39.55;;;;;;;;;;5037871;28;20044;-76
2021/12/22 08:42:22;;;;;;;120.72;44.70;;;;;;;;;;5042571;28;20029;-75
2021/12/22 08:44:47;;;;;;;108.20;40.67;;;;;;;;;;5031163;28;20138;-77
2021/12/22 08:47:13;;;;;;;114.13;43.28;;;;;;;;;;5053603;28;20056;-76
2021/12/22 08:49:40;;;;;;;125.18;48.42;;;;;;;;;;5035695;28;20029;-76
2021/12/22 08:52:06;;;;;;;139.88;50.63;;;;;;;;;;5018803;28;20495;-75
2021/12/22 08:54:31;;;;;;;132.27;51.72;;;;;;;;;;5036231;28;20123;-75
2021/12/22 08:57:00;;;;;;;100.18;39.80;;;;;;;;;;5035484;28;20027;-79
2021/12/22 08:59:25;;;;;;;102.47;38.75;;;;;;;;;;5052983;28;20422;-74
2021/12/22 09:01:53;;;;;;;93.63;38.28;;;;;;;;;;5061522;28;20024;-80
2021/12/22 09:04:27;;;;;;;89.82;34.20;;;;;;;;;;5029809;28;20041;-77
2021/12/22 09:06:53;;;;;;;72.22;30.60;;;;;;;;;;5035700;28;20060;-79
2021/12/22 09:12:29;;;;;;;73.40;28.50;;;;;;;;;;5062220;22;20135;-78
2021/12/22 09:14:55;;;;;;;82.65;30.67;;;;;;;;;;5032392;28;20506;-78
2021/12/22 09:17:21;;;;;;;81.75;31.50;;;;;;;;;;5050048;28;20064;-77
2021/12/22 09:19:47;;;;;;;93.50;34.70;;;;;;;;;;5034587;28;20420;-76
2021/12/22 09:22:12;;;;;;;78.85;31.70;;;;;;;;;;5054784;28;20107;-78
2021/12/22 09:24:38;;;;;;;75.25;29.75;;;;;;;;;;5048280;28;20495;-76
2021/12/22 09:27:03;;;;;;;78.93;30.70;;;;;;;;;;5051994;28;20039;-78
2021/12/22 09:29:29;;;;;;;74.90;29.48;;;;;;;;;;5054350;28;20025;-77
2021/12/22 09:31:56;;;;;;;76.97;30.08;;;;;;;;;;5052242;28;20033;-80
2021/12/22 09:34:22;;;;;;;67.80;25.92;;;;;;;;;;5046467;28;20033;-80
2021/12/22 09:36:47;;;;;;;90.82;30.35;;;;;;;;;;5050329;28;20021;-80
2021/12/22 09:39:13;;;;;;;67.82;26.70;;;;;;;;;;5049565;28;20101;-78
2021/12/22 09:41:39;;;;;;;65.80;25.75;;;;;;;;;;5037635;28;20033;-78
2021/12/22 09:44:05;;;;;;;53.63;23.38;;;;;;;;;;5024794;28;20064;-78
2021/12/22 09:46:30;;;;;;;59.63;23.85;;;;;;;;;;5052581;28;20029;-78
2021/12/22 09:49:07;;;;;;;77.63;30.77;;;;;;;;;;5036647;28;20083;-79
2021/12/22 09:53:58;;;;;;;78.82;30.75;;;;;;;;;;5050850;28;20025;-80
2021/12/22 09:56:27;;;;;;;80.70;29.95;;;;;;;;;;5031234;28;20392;-78
2021/12/22 09:58:53;;;;;;;74.68;29.05;;;;;;;;;;5039401;28;20028;-81
2021/12/22 10:01:23;;;;;;;77.18;28.95;;;;;;;;;;5050260;28;20090;-81
2021/12/22 10:03:50;;;;;;;96.68;34.00;;;;;;;;;;5035389;28;20087;-81
2021/12/22 10:06:18;;;;;;;88.22;33.42;;;;;;;;;;5052102;28;20037;-83
2021/12/22 10:08:52;;;;;;;84.75;31.98;;;;;;;;;;5023469;28;20525;-81
2021/12/22 10:11:18;;;;;;;92.05;33.55;;;;;;;;;;5055970;28;20041;-82
2021/12/22 10:13:46;;;;;;;81.13;31.08;;;;;;;;;;5059958;28;20036;-83
2021/12/22 10:19:14;;;;;;;53.25;21.67;;;;;;;;;;5256806;22;20113;-83
2021/12/22 10:24:43;;;;;;;50.20;20.17;;;;;;;;;;5226591;22;20061;-82
2021/12/22 10:27:39;;;;;;;46.03;19.55;;;;;;;;;;4998813;28;20032;-79
2021/12/22 10:30:27;;;;;;;41.17;18.48;;;;;;;;;;4984300;28;20139;-80
2021/12/22 10:36:15;;;;;;;53.08;21.77;;;;;;;;;;5083981;22;20083;-83
2021/12/22 10:38:49;;;;;;;59.10;25.85;;;;;;;;;;4999845;22;20050;-83
2021/12/22 10:41:35;;;;;;;57.40;22.75;;;;;;;;;;5035932;28;20029;-81
2021/12/22 10:44:01;;;;;;;69.95;26.52;;;;;;;;;;5019816;28;20057;-79
2021/12/22 10:46:29;;;;;;;65.07;25.65;;;;;;;;;;5019641;28;20057;-82
2021/12/22 10:49:15;;;;;;;57.25;22.10;;;;;;;;;;5021042;28;20075;-78
2021/12/22 10:51:43;;;;;;;62.75;24.58;;;;;;;;;;4988821;28;20030;-79
2021/12/22 10:54:25;;;;;;;66.20;25.90;;;;;;;;;;5013632;28;20037;-78
2021/12/22 10:56:57;;;;;;;66.85;24.30;;;;;;;;;;5003712;28;20399;-78
2021/12/22 10:59:26;;;;;;;68.60;26.40;;;;;;;;;;4972840;28;20051;-80
2021/12/22 11:01:57;;;;;;;65.60;23.48;;;;;;;;;;4957267;28;20454;-79
2021/12/22 11:04:29;;;;;;;39.75;16.85;;;;;;;;;;4990667;28;20042;-78
2021/12/22 11:07:11;;;;;;;40.90;17.17;;;;;;;;;;4977722;28;20458;-78
2021/12/22 11:09:37;;;;;;;42.42;17.75;;;;;;;;;;4992605;28;20038;-79
2021/12/22 11:12:04;;;;;;;44.67;18.65;;;;;;;;;;4976696;28;20031;-78
2021/12/22 11:14:40;;;;;;;48.70;21.50;;;;;;;;;;4962951;28;20042;-77
2021/12/22 11:17:09;;;;;;;45.00;17.52;;;;;;;;;;4977467;28;20117;-79
2021/12/22 11:19:47;;;;;;;29.40;12.55;;;;;;;;;;4974697;28;20190;-79
2021/12/22 11:22:16;;;;;;;37.30;15.55;;;;;;;;;;4980009;28;20386;-77
2021/12/22 11:24:48;;;;;;;36.05;15.05;;;;;;;;;;4971608;28;20043;-75
2021/12/22 11:27:18;;;;;;;41.90;18.42;;;;;;;;;;4975236;28;20069;-76
2021/12/22 11:30:02;;;;;;;33.97;16.23;;;;;;;;;;4976023;28;20045;-78
2021/12/22 11:32:29;;;;;;;38.53;17.40;;;;;;;;;;5034981;28;20472;-80
2021/12/22 11:35:08;;;;;;;28.10;13.00;;;;;;;;;;5018574;28;20365;-78
2021/12/22 11:40:21;;;;;;;29.52;12.85;;;;;;;;;;5465600;22;20057;31
2021/12/22 11:42:47;;;;;;;50.15;22.67;;;;;;;;;;5049905;28;20051;-77
2021/12/22 11:45:17;;;;;;;39.05;17.45;;;;;;;;;;5053934;28;20367;-76
2021/12/22 11:47:53;;;;;;;26.15;12.73;;;;;;;;;;5035822;28;20075;-77
2021/12/22 11:50:25;;;;;;;24.48;10.52;;;;;;;;;;5073894;28;20606;-77
2021/12/22 11:52:58;;;;;;;19.17;8.05;;;;;;;;;;5035363;28;20033;-78
2021/12/22 11:55:28;;;;;;;29.70;8.60;;;;;;;;;;5053146;28;20064;-78
2021/12/22 11:58:14;;;;;;;35.35;10.25;;;;;;;;;;5066569;28;20028;-78
2021/12/22 12:00:41;;;;;;;28.17;10.02;;;;;;;;;;5050411;28;20063;-78
2021/12/22 12:03:23;;;;;;;47.70;23.77;;;;;;;;;;5053689;28;20719;-78
2021/12/22 12:06:06;;;;;;;28.60;12.00;;;;;;;;;;5050503;28;20024;-78
2021/12/22 12:08:39;;;;;;;14.65;6.72;;;;;;;;;;5034038;28;20028;-79
2021/12/22 12:11:06;;;;;;;25.02;11.90;;;;;;;;;;5051080;28;20061;-79
2021/12/22 12:13:45;;;;;;;22.52;10.00;;;;;;;;;;5035508;28;20613;-80
2021/12/22 12:21:59;;;;;;;30.83;7.95;;;;;;;;;;5032263;28;20037;-80
2021/12/22 12:24:40;;;;;;;20.63;6.93;;;;;;;;;;5047357;28;20048;-79
2021/12/22 12:27:44;;;;;;;21.13;8.80;;;;;;;;;;5047557;28;20168;-79
2021/12/22 12:30:13;;;;;;;42.83;15.30;;;;;;;;;;5032112;28;20361;-79
2021/12/22 12:32:50;;;;;;;58.30;16.73;;;;;;;;;;5037240;28;20029;-79
2021/12/22 12:35:19;;;;;;;31.67;10.98;;;;;;;;;;5043058;28;20068;-80
2021/12/22 12:38:06;;;;;;;29.33;12.07;;;;;;;;;;5065791;28;20435;-78
2021/12/22 12:41:00;;;;;;;18.45;8.05;;;;;;;;;;5050100;28;20105;-79
2021/12/22 12:43:51;;;;;;;28.17;11.05;;;;;;;;;;5066806;28;20071;-79
2021/12/22 12:46:23;;;;;;;30.67;12.23;;;;;;;;;;5051108;28;20159;-79
2021/12/22 12:49:04;;;;;;;38.95;14.40;;;;;;;;;;5051122;28;20112;-77
2021/12/22 12:51:32;;;;;;;32.03;13.95;;;;;;;;;;5051911;28;20032;-78
2021/12/22 12:54:16;;;;;;;25.60;12.75;;;;;;;;;;5051412;28;20115;-80
2021/12/22 12:56:55;;;;;;;29.75;13.35;;;;;;;;;;5068884;28;20107;-78
2021/12/22 12:59:44;;;;;;;40.75;19.45;;;;;;;;;;5052895;28;20083;-78
2021/12/22 13:02:11;;;;;;;29.83;10.88;;;;;;;;;;5052114;28;20652;-81
2021/12/22 13:04:41;;;;;;;24.63;9.60;;;;;;;;;;5040046;28;20033;-78
2021/12/22 13:07:16;;;;;;;32.77;13.10;;;;;;;;;;5053050;28;20060;-78
2021/12/22 13:09:54;;;;;;;55.65;19.25;;;;;;;;;;5053380;28;20456;-78
2021/12/22 13:17:44;;;;;;;38.23;16.17;;;;;;;;;;5054061;28;20127;-79
2021/12/22 13:20:15;;;;;;;93.15;39.63;;;;;;;;;;5052687;28;20423;-79
2021/12/22 13:22:41;;;;;;;60.85;23.67;;;;;;;;;;5041448;28;20025;-79
2021/12/22 13:25:15;;;;;;;52.10;20.33;;;;;;;;;;5054592;28;20127;-79
2021/12/22 13:27:43;;;;;;;39.35;15.48;;;;;;;;;;5052680;28;20029;-79
2021/12/22 13:30:13;;;;;;;47.38;14.95;;;;;;;;;;5052733;28;20029;-80
2021/12/22 13:33:02;;;;;;;33.55;11.98;;;;;;;;;;5052982;28;20392;-78
2021/12/22 13:35:43;;;;;;;30.92;12.10;;;;;;;;;;5069313;28;20452;-78
2021/12/22 13:38:32;;;;;;;31.60;11.82;;;;;;;;;;5052721;28;20029;-78
2021/12/22 13:41:03;;;;;;;29.42;13.00;;;;;;;;;;5052676;28;20051;-77
2021/12/22 13:43:55;;;;;;;52.92;14.20;;;;;;;;;;5064728;28;20017;-77
2021/12/22 13:46:22;;;;;;;35.55;11.70;;;;;;;;;;5052456;28;20053;-77
2021/12/22 13:48:56;;;;;;;39.10;14.10;;;;;;;;;;5054033;28;20048;-79
2021/12/22 13:51:27;;;;;;;36.20;12.73;;;;;;;;;;5052941;28;20075;-78
2021/12/22 13:53:53;;;;;;;37.00;13.60;;;;;;;;;;5052548;28;20053;-79
2021/12/22 13:56:19;;;;;;;43.20;16.27;;;;;;;;;;5052442;28;20329;-77
2021/12/22 13:58:52;;;;;;;39.65;14.85;;;;;;;;;;5052483;28;20037;-76
2021/12/22 14:01:38;;;;;;;52.47;18.02;;;;;;;;;;5035664;28;20028;-77
2021/12/22 14:04:12;;;;;;;50.20;17.02;;;;;;;;;;5061197;28;20060;-78
2021/12/22 14:06:52;;;;;;;78.50;31.52;;;;;;;;;;5052546;28;20360;-78
2021/12/22 14:09:23;;;;;;;97.53;44.72;;;;;;;;;;5052397;28;20083;-79
2021/12/22 14:11:58;;;;;;;68.80;25.75;;;;;;;;;;5053802;28;20033;-78
2021/12/22 14:14:33;;;;;;;72.38;25.70;;;;;;;;;;5052322;28;20047;-79
2021/12/22 14:17:08;;;;;;;52.67;16.73;;;;;;;;;;5069158;28;20044;-78
2021/12/22 14:19:36;;;;;;;62.55;19.40;;;;;;;;;;5052543;28;20036;-78
2021/12/22 14:22:06;;;;;;;48.00;16.50;;;;;;;;;;5052222;28;20151;-78
2021/12/22 14:24:32;;;;;;;55.20;18.07;;;;;;;;;;5057759;28;20096;-78
2021/12/22 14:26:59;;;;;;;67.70;21.20;;;;;;;;;;5056410;28;20127;-79
2021/12/22 14:29:24;;;;;;;64.28;18.92;;;;;;;;;;5053988;28;20025;-79
2021/12/22 14:32:03;;;;;;;84.60;26.05;;;;;;;;;;5056056;28;20470;-78
2021/12/22 14:34:29;;;;;;;290.05;106.85;;;;;;;;;;5055700;28;20123;-79
2021/12/22 14:36:54;;;;;;;180.77;60.10;;;;;;;;;;5055955;28;20474;-78
2021/12/22 14:39:22;;;;;;;105.22;34.83;;;;;;;;;;5072336;28;20037;-78
2021/12/22 14:41:47;;;;;;;91.50;29.23;;;;;;;;;;5055489;28;20483;-78
2021/12/22 14:44:23;;;;;;;98.82;37.20;;;;;;;;;;5072609;28;20025;-78
2021/12/22 14:46:51;;;;;;;88.85;30.88;;;;;;;;;;5062203;28;20456;-78
2021/12/22 14:49:22;;;;;;;80.05;27.38;;;;;;;;;;5055792;28;20029;-79
2021/12/22 14:51:49;;;;;;;78.40;26.35;;;;;;;;;;5055458;28;20055;-78
2021/12/22 14:54:22;;;;;;;62.30;20.30;;;;;;;;;;5059542;28;20025;-77
2021/12/22 14:56:56;;;;;;;62.92;21.13;;;;;;;;;;5060403;28;20115;-78
2021/12/22 14:59:22;;;;;;;76.32;23.92;;;;;;;;;;5060860;28;20487;-78
2021/12/22 15:01:48;;;;;;;85.20;28.65;;;;;;;;;;5060730;28;20051;-79
2021/12/22 15:04:14;;;;;;;90.15;28.35;;;;;;;;;;5042501;28;20025;-78
2021/12/22 15:06:39;;;;;;;75.00;24.65;;;;;;;;;;5060653;28;20025;-77